createdAt,value
2019-01-04T00:01:15.690Z,3.80
2019-01-04T00:03:57.866Z,3.70
2019-01-04T00:06:39.686Z,3.70
2019-01-04T00:09:21.485Z,3.70
2019-01-04T00:12:03.451Z,3.70
2019-01-04T00:14:34.949Z,3.70
2019-01-04T00:17:16.969Z,3.70
2019-01-04T00:19:58.719Z,3.60
2019-01-04T00:22:40.668Z,3.60
2019-01-04T00:25:23.617Z,3.60
2019-01-04T00:28:05.780Z,3.60
2019-01-04T00:30:36.059Z,3.60
2019-01-04T00:33:18.056Z,3.60
2019-01-04T00:36:00.142Z,3.60
2019-01-04T00:38:42.076Z,3.50
2019-01-04T00:41:24.153Z,3.50
2019-01-04T00:44:05.979Z,3.40
2019-01-04T00:46:36.217Z,3.40
2019-01-04T00:49:17.638Z,3.30
2019-01-04T00:51:59.426Z,3.30
2019-01-04T00:54:41.498Z,3.30
2019-01-04T00:57:23.351Z,3.20
2019-01-04T01:00:05.714Z,3.20
2019-01-04T01:03:15.734Z,3.30
2019-01-04T01:05:57.821Z,3.20
2019-01-04T01:08:39.835Z,3.20
2019-01-04T01:11:21.970Z,3.20
2019-01-04T01:14:04.052Z,3.30
2019-01-04T01:16:46.252Z,3.20
2019-01-04T01:19:28.263Z,3.20
2019-01-04T01:22:10.414Z,3.20
2019-01-04T01:25:18.772Z,3.20
2019-01-04T01:28:00.475Z,3.10
2019-01-04T01:30:42.383Z,3.10
2019-01-04T01:33:24.420Z,3.20
2019-01-04T01:36:06.315Z,3.20
2019-01-04T01:38:47.820Z,3.20
2019-01-04T01:41:56.139Z,3.20
2019-01-04T01:44:38.235Z,3.20
2019-01-04T01:47:20.614Z,3.20
2019-01-04T01:50:02.976Z,3.20
2019-01-04T01:52:44.887Z,3.20
2019-01-04T01:55:26.732Z,3.20
2019-01-04T01:58:08.879Z,3.30
2019-01-04T02:00:50.780Z,3.30
2019-01-04T02:03:32.930Z,3.30
2019-01-04T02:06:14.710Z,3.30
2019-01-04T02:08:56.514Z,3.20
2019-01-04T02:11:39.011Z,3.30
2019-01-04T02:14:21.107Z,3.20
2019-01-04T02:17:02.670Z,3.30
2019-01-04T02:19:44.590Z,3.30
2019-01-04T02:22:26.654Z,3.30
2019-01-04T02:25:08.782Z,3.30
2019-01-04T02:27:50.846Z,3.30
2019-01-04T02:30:33.093Z,3.30
2019-01-04T02:33:14.746Z,3.20
2019-01-04T02:35:56.637Z,3.20
2019-01-04T02:38:38.681Z,3.10
2019-01-04T02:41:20.991Z,3.10
2019-01-04T02:44:03.113Z,3.10
2019-01-04T02:46:44.988Z,3.10
2019-01-04T02:49:27.252Z,3.10
2019-01-04T02:52:09.143Z,3.10
2019-01-04T02:54:51.141Z,3.20
2019-01-04T02:57:32.902Z,3.20
2019-01-04T03:00:14.916Z,3.30
2019-01-04T03:02:57.046Z,3.40
2019-01-04T03:05:38.697Z,3.40
2019-01-04T03:08:20.839Z,3.50
2019-01-04T03:11:02.899Z,3.50
2019-01-04T03:13:45.083Z,3.50
2019-01-04T03:16:27.075Z,3.50
2019-01-04T03:19:08.959Z,3.50
2019-01-04T03:21:50.986Z,3.60
2019-01-04T03:24:32.909Z,3.60
2019-01-04T03:27:14.718Z,3.60
2019-01-04T03:29:56.462Z,3.60
2019-01-04T03:32:38.311Z,3.70
2019-01-04T03:35:20.307Z,3.70
2019-01-04T03:38:02.024Z,3.80
2019-01-04T03:40:43.780Z,3.80
2019-01-04T03:43:25.643Z,3.80
2019-01-04T03:46:07.406Z,3.90
2019-01-04T03:48:49.017Z,4.00
2019-01-04T03:51:31.119Z,3.90
2019-01-04T03:54:13.136Z,3.90
2019-01-04T03:56:55.364Z,3.90
2019-01-04T03:59:37.486Z,3.90
2019-01-04T04:02:19.101Z,3.80
2019-01-04T04:04:49.623Z,3.80
2019-01-04T04:07:31.181Z,3.80
2019-01-04T04:10:13.478Z,3.80
2019-01-04T04:12:54.945Z,3.80
2019-01-04T04:15:36.718Z,3.80
2019-01-04T04:18:18.497Z,3.90
2019-01-04T04:21:00.067Z,3.90
2019-01-04T04:23:42.014Z,3.90
2019-01-04T04:26:23.907Z,3.80
2019-01-04T04:29:05.702Z,3.90
2019-01-04T04:31:47.444Z,3.90
2019-01-04T04:34:29.217Z,3.90
2019-01-04T04:37:11.252Z,3.90
2019-01-04T04:39:53.255Z,3.80
2019-01-04T04:42:35.179Z,3.90
2019-01-04T04:45:16.905Z,3.80
2019-01-04T04:47:59.319Z,3.70
2019-01-04T04:50:41.240Z,3.70
2019-01-04T04:53:23.074Z,3.70
2019-01-04T04:56:04.663Z,3.70
2019-01-04T04:58:46.693Z,3.70
2019-01-04T05:01:28.861Z,3.60
2019-01-04T05:04:10.947Z,3.60
2019-01-04T05:06:53.180Z,3.50
2019-01-04T05:09:34.974Z,3.50
2019-01-04T05:12:17.062Z,3.40
2019-01-04T05:14:58.482Z,3.40
2019-01-04T05:17:28.759Z,3.30
2019-01-04T05:20:18.028Z,3.30
2019-01-04T05:22:48.263Z,3.20
2019-01-04T05:25:29.854Z,3.10
2019-01-04T05:28:11.846Z,3.10
2019-01-04T05:30:53.839Z,3.10
2019-01-04T05:33:36.147Z,3.10
2019-01-04T05:36:18.051Z,3.10
2019-01-04T05:38:59.994Z,3.20
2019-01-04T05:41:41.684Z,3.20
2019-01-04T05:44:23.646Z,3.20
2019-01-04T05:47:05.796Z,3.20
2019-01-04T05:49:48.030Z,3.20
2019-01-04T05:52:29.949Z,3.20
2019-01-04T05:55:00.347Z,3.20
2019-01-04T05:57:42.378Z,3.20
2019-01-04T06:00:24.602Z,3.20
2019-01-04T06:03:06.723Z,3.20
2019-01-04T06:05:48.327Z,3.20
2019-01-04T06:08:29.894Z,3.20
2019-01-04T06:11:11.858Z,3.20
2019-01-04T06:13:56.602Z,3.20
2019-01-04T06:16:26.976Z,3.20
2019-01-04T06:19:09.110Z,3.30
2019-01-04T06:21:53.919Z,3.30
2019-01-04T06:24:36.198Z,3.30
2019-01-04T06:27:18.378Z,3.40
2019-01-04T06:30:00.487Z,3.50
2019-01-04T06:32:42.682Z,3.50
2019-01-04T06:35:24.951Z,3.50
2019-01-04T06:38:06.379Z,3.60
2019-01-04T06:40:36.635Z,3.70
2019-01-04T06:43:06.874Z,3.70
2019-01-04T06:46:08.319Z,3.70
2019-01-04T06:48:50.338Z,3.80
2019-01-04T06:51:32.511Z,3.80
2019-01-04T06:54:14.464Z,3.80
2019-01-04T06:56:56.639Z,3.80
2019-01-04T06:59:38.823Z,3.90
2019-01-04T07:02:20.967Z,3.90
2019-01-04T07:05:03.837Z,3.90
2019-01-04T07:07:46.085Z,3.80
2019-01-04T07:10:28.176Z,3.80
2019-01-04T07:13:10.459Z,3.80
2019-01-04T07:15:52.309Z,3.80
2019-01-04T07:18:34.618Z,3.80
2019-01-04T07:21:16.693Z,3.90
2019-01-04T07:23:58.561Z,3.80
2019-01-04T07:26:40.848Z,3.80
2019-01-04T07:29:11.053Z,3.80
2019-01-04T07:31:54.612Z,3.80
2019-01-04T07:34:36.640Z,3.70
2019-01-04T07:37:18.791Z,3.80
2019-01-04T07:40:00.800Z,3.70
2019-01-04T07:42:42.934Z,3.70
2019-01-04T07:45:24.684Z,3.60
2019-01-04T07:48:07.142Z,3.60
2019-01-04T07:50:49.114Z,3.60
2019-01-04T07:53:31.145Z,3.60
2019-01-04T07:56:13.947Z,3.60
2019-01-04T07:58:55.918Z,3.60
2019-01-04T08:01:37.864Z,3.60
2019-01-04T08:04:19.574Z,3.60
2019-01-04T08:07:01.678Z,3.60
2019-01-04T08:09:43.531Z,3.60
2019-01-04T08:12:25.421Z,3.50
2019-01-04T08:15:07.202Z,3.40
2019-01-04T08:17:51.044Z,3.40
2019-01-04T08:20:33.326Z,3.40
2019-01-04T08:23:15.336Z,3.30
2019-01-04T08:25:57.539Z,3.30
2019-01-04T08:28:39.626Z,3.20
2019-01-04T08:31:21.825Z,3.30
2019-01-04T08:34:04.031Z,3.20
2019-01-04T08:36:46.038Z,3.20
2019-01-04T08:39:27.745Z,3.20
2019-01-04T08:42:10.008Z,3.20
2019-01-04T08:44:51.966Z,3.20
2019-01-04T08:47:34.054Z,3.20
2019-01-04T08:50:17.502Z,3.20
2019-01-04T08:53:00.014Z,3.20
2019-01-04T08:55:42.132Z,3.30
2019-01-04T08:58:23.993Z,3.40
2019-01-04T09:01:06.281Z,3.50
2019-01-04T09:03:48.297Z,3.60
2019-01-04T09:06:30.315Z,3.80
2019-01-04T09:09:14.022Z,3.80
2019-01-04T09:11:56.083Z,3.80
2019-01-04T09:14:38.141Z,3.80
2019-01-04T09:17:20.283Z,3.90
2019-01-04T09:20:02.402Z,4.00
2019-01-04T09:22:44.354Z,4.10
2019-01-04T09:25:26.715Z,4.10
2019-01-04T09:28:08.695Z,4.20
2019-01-04T09:30:50.580Z,4.20
2019-01-04T09:33:32.627Z,4.10
2019-01-04T09:36:15.383Z,4.20
2019-01-04T09:39:03.156Z,4.10
2019-01-04T09:41:41.030Z,4.10
2019-01-04T09:44:23.180Z,4.10
2019-01-04T09:47:05.402Z,4.20
2019-01-04T09:49:47.511Z,4.10
2019-01-04T09:52:29.086Z,4.10
2019-01-04T09:55:10.775Z,4.10
2019-01-04T09:57:54.491Z,4.10
2019-01-04T10:00:36.470Z,4.10
2019-01-04T10:03:18.520Z,4.10
2019-01-04T10:06:00.450Z,4.20
2019-01-04T10:08:44.990Z,4.20
2019-01-04T10:11:26.361Z,4.20
2019-01-04T10:14:08.130Z,4.10
2019-01-04T10:16:49.787Z,4.00
2019-01-04T10:19:31.908Z,4.10
2019-01-04T10:22:13.842Z,4.10
2019-01-04T10:24:55.929Z,4.10
2019-01-04T10:27:37.834Z,4.10
2019-01-04T10:30:19.367Z,4.00
2019-01-04T10:33:01.226Z,4.00
2019-01-04T10:35:43.254Z,4.10
2019-01-04T10:38:25.070Z,4.10
2019-01-04T10:41:07.150Z,4.10
2019-01-04T10:43:48.557Z,4.20
2019-01-04T10:46:30.650Z,4.20
2019-01-04T10:49:13.655Z,4.20
2019-01-04T10:51:55.106Z,4.10
2019-01-04T10:54:36.946Z,4.10
2019-01-04T10:57:19.009Z,4.20
2019-01-04T11:00:00.884Z,4.20
2019-01-04T11:02:43.152Z,4.20
2019-01-04T11:05:25.228Z,4.30
2019-01-04T11:08:07.294Z,4.20
2019-01-04T11:10:49.255Z,4.40
2019-01-04T11:13:31.452Z,4.40
2019-01-04T11:16:13.822Z,4.50
2019-01-04T11:18:55.808Z,4.50
2019-01-04T11:21:37.503Z,4.50
2019-01-04T11:24:19.702Z,4.60
2019-01-04T11:27:01.608Z,4.70
2019-01-04T11:29:43.613Z,4.60
2019-01-04T11:32:25.884Z,4.60
2019-01-04T11:35:08.230Z,4.60
2019-01-04T11:37:51.941Z,4.60
2019-01-04T11:40:34.259Z,4.70
2019-01-04T11:43:16.302Z,4.60
2019-01-04T11:45:58.385Z,4.70
2019-01-04T11:48:40.243Z,4.70
2019-01-04T11:51:22.265Z,4.70
2019-01-04T11:54:04.522Z,4.60
2019-01-04T11:56:34.821Z,4.60
2019-01-04T11:59:24.098Z,4.60
2019-01-04T12:02:06.027Z,4.60
2019-01-04T12:04:48.147Z,4.60
2019-01-04T12:07:30.103Z,4.60
2019-01-04T12:10:12.235Z,4.60
2019-01-04T12:12:53.868Z,4.60
2019-01-04T12:15:36.322Z,4.60
2019-01-04T12:18:18.614Z,4.60
2019-01-04T12:21:00.591Z,4.60
2019-01-04T12:23:42.610Z,4.60
2019-01-04T12:26:24.822Z,4.60
2019-01-04T12:29:07.077Z,4.60
2019-01-04T12:31:49.046Z,4.60
2019-01-04T12:34:30.942Z,4.70
2019-01-04T12:37:12.882Z,4.80
2019-01-04T12:39:54.604Z,4.70
2019-01-04T12:42:36.995Z,4.70
2019-01-04T12:45:19.019Z,4.80
2019-01-04T12:48:01.198Z,4.80
2019-01-04T12:50:43.015Z,4.80
2019-01-04T12:53:24.979Z,4.80
2019-01-04T12:56:06.988Z,4.80
2019-01-04T12:58:48.547Z,4.80
2019-01-04T13:01:31.045Z,4.70
2019-01-04T13:04:13.289Z,4.70
2019-01-04T13:06:55.146Z,4.70
2019-01-04T13:09:37.123Z,4.70
2019-01-04T13:12:19.154Z,4.80
2019-01-04T13:15:01.264Z,4.80
2019-01-04T13:17:43.290Z,4.80
2019-01-04T13:20:25.998Z,4.80
2019-01-04T13:23:08.270Z,4.90
2019-01-04T13:25:50.561Z,4.90
2019-01-04T13:28:33.094Z,4.80
2019-01-04T13:31:14.667Z,4.90
2019-01-04T13:33:56.755Z,4.90
2019-01-04T13:36:39.026Z,4.90
2019-01-04T13:39:21.158Z,4.80
2019-01-04T13:42:03.129Z,4.90
2019-01-04T13:44:45.382Z,4.90
2019-01-04T13:47:32.224Z,4.90
2019-01-04T13:50:11.389Z,4.90
2019-01-04T13:52:53.731Z,5.00
2019-01-04T13:55:35.715Z,5.00
2019-01-04T13:58:17.717Z,4.90
2019-01-04T14:00:59.609Z,4.90
2019-01-04T14:03:41.939Z,4.80
2019-01-04T14:06:12.230Z,4.90
2019-01-04T14:08:54.645Z,4.90
2019-01-04T14:11:37.076Z,5.00
2019-01-04T14:14:18.906Z,5.00
2019-01-04T14:17:01.144Z,5.00
2019-01-04T14:19:43.222Z,5.00
2019-01-04T14:22:25.372Z,4.90
2019-01-04T14:25:07.779Z,4.80
2019-01-04T14:27:49.559Z,4.80
2019-01-04T14:30:32.077Z,4.70
2019-01-04T14:33:13.751Z,4.70
2019-01-04T14:35:55.547Z,4.70
2019-01-04T14:38:37.974Z,4.70
2019-01-04T14:41:23.314Z,4.60
2019-01-04T14:44:03.410Z,4.60
2019-01-04T14:46:45.652Z,4.60
2019-01-04T14:49:27.582Z,4.60
2019-01-04T14:52:09.589Z,4.60
2019-01-04T14:54:51.991Z,4.50
2019-01-04T14:57:33.983Z,4.50
2019-01-04T15:00:15.982Z,4.40
2019-01-04T15:02:58.257Z,4.40
2019-01-04T15:05:40.619Z,4.40
2019-01-04T15:08:22.513Z,4.30
2019-01-04T15:11:04.871Z,4.20
2019-01-04T15:13:46.694Z,4.20
2019-01-04T15:16:28.253Z,4.20
2019-01-04T15:19:10.269Z,4.20
2019-01-04T15:21:52.071Z,4.20
2019-01-04T15:24:34.186Z,4.20
2019-01-04T15:27:16.220Z,4.10
2019-01-04T15:29:46.535Z,4.10
2019-01-04T15:32:28.495Z,4.10
2019-01-04T15:35:10.786Z,4.10
2019-01-04T15:37:52.975Z,4.10
2019-01-04T15:40:34.998Z,4.10
2019-01-04T15:43:16.806Z,4.10
2019-01-04T15:45:47.098Z,4.10
2019-01-04T15:48:36.443Z,4.10
2019-01-04T15:51:18.150Z,4.10
2019-01-04T15:53:48.404Z,4.10
2019-01-04T15:56:37.735Z,4.10
2019-01-04T15:59:20.058Z,4.10
2019-01-04T16:01:50.374Z,4.10
2019-01-04T16:04:39.635Z,4.10
2019-01-04T16:07:21.097Z,4.10
2019-01-04T16:10:03.482Z,4.00
2019-01-04T16:12:46.116Z,4.10
2019-01-04T16:15:27.659Z,4.10
2019-01-04T16:18:09.725Z,4.10
2019-01-04T16:20:51.718Z,4.00
2019-01-04T16:23:33.805Z,4.00
2019-01-04T16:26:16.061Z,4.00
2019-01-04T16:28:58.155Z,4.10
2019-01-04T16:31:40.267Z,4.10
2019-01-04T16:34:22.094Z,4.10
2019-01-04T16:37:03.551Z,4.00
2019-01-04T16:39:45.486Z,4.10
2019-01-04T16:42:27.532Z,4.00
2019-01-04T16:45:09.467Z,4.00
2019-01-04T16:47:51.536Z,4.10
2019-01-04T16:50:33.861Z,4.00
2019-01-04T16:53:15.998Z,3.90
2019-01-04T16:55:58.140Z,3.90
2019-01-04T16:58:40.341Z,3.90
2019-01-04T17:01:22.735Z,3.90
2019-01-04T17:04:04.963Z,3.90
2019-01-04T17:06:46.776Z,3.80
2019-01-04T17:09:28.899Z,3.80
2019-01-04T17:11:59.210Z,3.90
2019-01-04T17:14:41.147Z,3.80
2019-01-04T17:17:23.502Z,3.80
2019-01-04T17:20:05.391Z,3.80
2019-01-04T17:22:47.858Z,3.70
2019-01-04T17:25:29.952Z,3.70
2019-01-04T17:28:11.973Z,3.70
2019-01-04T17:30:56.416Z,3.70
2019-01-04T17:33:37.974Z,3.70
2019-01-04T17:36:20.251Z,3.70
2019-01-04T17:39:04.553Z,3.70
2019-01-04T17:41:47.380Z,3.70
2019-01-04T17:44:29.613Z,3.70
2019-01-04T17:47:11.667Z,3.70
2019-01-04T17:49:53.609Z,3.70
2019-01-04T17:52:36.352Z,3.70
2019-01-04T17:55:18.638Z,3.70
2019-01-04T17:58:06.337Z,3.70
2019-01-04T18:00:46.305Z,3.70
2019-01-04T18:03:28.366Z,3.60
2019-01-04T18:06:10.575Z,3.80
2019-01-04T18:08:52.787Z,3.70
2019-01-04T18:11:34.807Z,3.80
2019-01-04T18:14:05.184Z,3.80
2019-01-04T18:16:54.536Z,3.80
2019-01-04T18:19:36.778Z,3.80
2019-01-04T18:22:19.710Z,3.80
2019-01-04T18:25:01.907Z,3.70
2019-01-04T18:27:45.085Z,3.80
2019-01-04T18:30:27.329Z,3.80
2019-01-04T18:33:09.250Z,3.80
2019-01-04T18:35:51.431Z,3.70
2019-01-04T18:38:34.695Z,3.70
2019-01-04T18:41:16.166Z,3.80
2019-01-04T18:44:01.880Z,3.80
2019-01-04T18:46:43.641Z,3.80
2019-01-04T18:49:16.954Z,3.80
2019-01-04T18:52:06.855Z,3.80
2019-01-04T18:54:50.666Z,3.80
2019-01-04T18:57:34.240Z,3.80
2019-01-04T19:03:10.013Z,3.80
2019-01-04T19:05:52.102Z,3.80
2019-01-04T19:08:34.315Z,3.80
2019-01-04T19:11:17.587Z,3.70
2019-01-04T19:13:59.882Z,3.70
2019-01-04T19:19:32.457Z,3.70
2019-01-04T19:22:14.534Z,3.70
2019-01-04T19:24:56.591Z,3.70
2019-01-04T19:27:40.468Z,3.70
2019-01-04T19:30:22.562Z,3.70
2019-01-04T19:33:04.762Z,3.70
2019-01-04T19:35:46.279Z,3.70
2019-01-04T19:38:16.656Z,3.70
2019-01-04T19:40:58.471Z,3.70
2019-01-04T19:43:40.331Z,3.70
2019-01-04T19:46:22.655Z,3.60
2019-01-04T19:49:04.831Z,3.70
2019-01-04T19:51:47.102Z,3.70
2019-01-04T19:54:28.961Z,3.70
2019-01-04T19:57:13.163Z,3.70
2019-01-04T19:59:57.310Z,3.70
2019-01-04T20:02:39.594Z,3.70
2019-01-04T20:08:46.409Z,3.70
2019-01-04T20:11:47.591Z,3.70
2019-01-04T20:14:49.142Z,3.70
2019-01-04T20:17:51.360Z,3.70
2019-01-04T20:20:59.253Z,3.70
2019-01-04T20:24:03.823Z,3.70
2019-01-04T20:30:01.007Z,3.60
2019-01-04T20:33:01.608Z,3.60
2019-01-04T20:39:08.626Z,3.60
2019-01-04T20:42:09.600Z,3.70
2019-01-04T20:45:10.605Z,3.70
2019-01-04T20:48:11.596Z,3.70
2019-01-04T20:51:05.810Z,3.60
2019-01-04T20:54:09.840Z,3.70
2019-01-04T20:57:07.748Z,3.60
2019-01-04T21:00:09.606Z,3.60
2019-01-04T21:03:17.636Z,3.70
2019-01-04T21:06:32.850Z,3.70
2019-01-04T21:09:27.911Z,3.60
2019-01-04T21:15:18.522Z,3.70
2019-01-04T21:18:20.633Z,3.70
2019-01-04T21:21:21.742Z,3.70
2019-01-04T21:24:22.144Z,3.70
2019-01-04T21:27:26.239Z,3.70
2019-01-04T21:30:27.392Z,3.80
2019-01-04T21:33:28.424Z,3.70
2019-01-04T21:36:29.251Z,3.70
2019-01-04T21:39:30.335Z,3.60
2019-01-04T21:42:35.717Z,3.70
2019-01-04T21:45:36.310Z,3.70
2019-01-04T21:48:37.602Z,3.70
2019-01-04T21:51:39.095Z,3.70
2019-01-04T21:54:40.303Z,3.70
2019-01-04T21:57:43.874Z,3.70
2019-01-04T22:00:44.834Z,3.70
2019-01-04T22:03:46.025Z,3.70
2019-01-04T22:06:48.096Z,3.70
2019-01-04T22:09:49.070Z,3.70
2019-01-04T22:12:49.922Z,3.70
2019-01-04T22:15:50.696Z,3.60
2019-01-04T22:18:51.853Z,3.70
2019-01-04T22:21:52.141Z,3.70
2019-01-04T22:24:46.599Z,3.70
2019-01-04T22:27:42.679Z,3.70
2019-01-04T22:30:43.029Z,3.70
2019-01-04T22:33:43.992Z,3.70
2019-01-04T22:36:48.340Z,3.70
2019-01-04T22:39:52.167Z,3.70
2019-01-04T22:42:53.218Z,3.80
2019-01-04T22:45:54.266Z,3.70
2019-01-04T22:48:43.399Z,3.80
2019-01-04T22:51:43.933Z,3.70
2019-01-04T22:54:45.092Z,3.80
2019-01-04T22:57:46.334Z,3.80
2019-01-04T23:00:47.205Z,3.80
2019-01-04T23:03:48.230Z,3.80
2019-01-04T23:06:49.443Z,3.90
2019-01-04T23:09:50.382Z,3.90
2019-01-04T23:12:51.110Z,3.90
2019-01-04T23:15:55.075Z,4.00
2019-01-04T23:18:55.987Z,4.00
2019-01-04T23:21:56.893Z,3.90
2019-01-04T23:24:58.106Z,4.00
2019-01-04T23:28:02.271Z,4.00
2019-01-04T23:31:03.487Z,4.00
2019-01-04T23:34:05.218Z,4.00
2019-01-04T23:37:06.122Z,4.00
2019-01-04T23:40:06.798Z,4.00
2019-01-04T23:43:10.498Z,4.00
2019-01-04T23:46:10.939Z,4.10
2019-01-04T23:49:12.002Z,4.10
2019-01-04T23:52:13.160Z,4.00
2019-01-04T23:55:13.966Z,4.00
2019-01-04T23:58:15.827Z,4.10
